Weather at Tribhuvan International Airport

Public forecast

Using degrees Celsius for public forecast. Weather courtesy of forecast.io.

Current aviation weather report (METAR) for Tribhuvan International Airport

2022/12/03 00:00 (retrieved 16 minutes ago)

VNKT 030000Z 09003KT 5000 BR FEW015 08/07 Q1019 NOSIG

Closest aviation forecast (TAF) to Tribhuvan International Airport

Forecast is more than 12 hours old.

Closest forecast is Gorakhpur Airport, 117.0 nm (216.7 km) WSW.

2022/12/02 12:00 (retrieved 12 hours ago)

TAF VEGK 020930Z 0212/0224 32005KT 4000 HZ FEW250 BECMG 0214/0215 VRB02KT 3000 BR NSC BECMG 0218/0220 2000 BR BECMG 0220/0222 1000 BR BECMG 0222/0224 VRB02KT 0600 FG NSC